sensor_id;sensor_type;location;lat;lon;timestamp;P1;durP1;ratioP1;P2;durP2;ratioP2
15673;SDS011;7937;48.090;16.212;2023-06-22T00:02:15;7.20;;;4.20;;
15673;SDS011;7937;48.090;16.212;2023-06-22T00:05:18;11.23;;;4.77;;
15673;SDS011;7937;48.090;16.212;2023-06-22T00:08:20;7.20;;;4.13;;
15673;SDS011;7937;48.090;16.212;2023-06-22T00:11:22;8.47;;;4.53;;
15673;SDS011;7937;48.090;16.212;2023-06-22T00:14:25;8.73;;;4.30;;
15673;SDS011;7937;48.090;16.212;2023-06-22T00:17:27;8.17;;;4.50;;
15673;SDS011;7937;48.090;16.212;2023-06-22T00:20:29;10.13;;;5.17;;
15673;SDS011;7937;48.090;16.212;2023-06-22T00:23:32;8.50;;;5.17;;
15673;SDS011;7937;48.090;16.212;2023-06-22T00:26:36;9.60;;;4.57;;
15673;SDS011;7937;48.090;16.212;2023-06-22T00:29:40;13.33;;;5.20;;
15673;SDS011;7937;48.090;16.212;2023-06-22T00:32:42;8.73;;;4.60;;
15673;SDS011;7937;48.090;16.212;2023-06-22T00:35:48;11.13;;;4.83;;
15673;SDS011;7937;48.090;16.212;2023-06-22T00:38:50;10.20;;;4.70;;
15673;SDS011;7937;48.090;16.212;2023-06-22T00:41:52;7.70;;;4.17;;
15673;SDS011;7937;48.090;16.212;2023-06-22T00:44:54;10.27;;;4.80;;
15673;SDS011;7937;48.090;16.212;2023-06-22T00:47:58;6.57;;;4.83;;
15673;SDS011;7937;48.090;16.212;2023-06-22T00:51:01;10.17;;;5.20;;
15673;SDS011;7937;48.090;16.212;2023-06-22T00:54:04;11.07;;;5.30;;
15673;SDS011;7937;48.090;16.212;2023-06-22T00:57:06;10.20;;;5.33;;
15673;SDS011;7937;48.090;16.212;2023-06-22T01:00:13;7.67;;;4.50;;
15673;SDS011;7937;48.090;16.212;2023-06-22T01:03:18;9.83;;;4.43;;
15673;SDS011;7937;48.090;16.212;2023-06-22T01:06:25;9.97;;;4.73;;
15673;SDS011;7937;48.090;16.212;2023-06-22T01:09:32;9.73;;;5.27;;
15673;SDS011;7937;48.090;16.212;2023-06-22T01:12:42;10.00;;;4.80;;
15673;SDS011;7937;48.090;16.212;2023-06-22T01:16:00;11.60;;;5.00;;
15673;SDS011;7937;48.090;16.212;2023-06-22T01:22:50;7.97;;;4.70;;
15673;SDS011;7937;48.090;16.212;2023-06-22T01:29:43;7.87;;;4.23;;
15673;SDS011;7937;48.090;16.212;2023-06-22T01:32:46;11.60;;;3.93;;
15673;SDS011;7937;48.090;16.212;2023-06-22T01:35:50;7.33;;;4.57;;
15673;SDS011;7937;48.090;16.212;2023-06-22T01:38:52;8.00;;;4.30;;
15673;SDS011;7937;48.090;16.212;2023-06-22T01:41:55;6.67;;;4.53;;
15673;SDS011;7937;48.090;16.212;2023-06-22T01:44:59;8.43;;;4.53;;
15673;SDS011;7937;48.090;16.212;2023-06-22T01:48:02;5.67;;;3.93;;
15673;SDS011;7937;48.090;16.212;2023-06-22T01:51:05;5.87;;;4.03;;
15673;SDS011;7937;48.090;16.212;2023-06-22T01:54:07;9.87;;;4.60;;
15673;SDS011;7937;48.090;16.212;2023-06-22T01:57:13;8.17;;;4.40;;
15673;SDS011;7937;48.090;16.212;2023-06-22T02:00:18;7.60;;;4.80;;
15673;SDS011;7937;48.090;16.212;2023-06-22T02:03:34;9.20;;;4.97;;
15673;SDS011;7937;48.090;16.212;2023-06-22T02:06:43;7.43;;;4.73;;
15673;SDS011;7937;48.090;16.212;2023-06-22T02:09:48;8.10;;;5.00;;
15673;SDS011;7937;48.090;16.212;2023-06-22T02:12:55;8.67;;;4.90;;
15673;SDS011;7937;48.090;16.212;2023-06-22T02:16:00;5.63;;;4.43;;
15673;SDS011;7937;48.090;16.212;2023-06-22T02:19:03;7.63;;;4.67;;
15673;SDS011;7937;48.090;16.212;2023-06-22T02:22:07;9.97;;;5.10;;
15673;SDS011;7937;48.090;16.212;2023-06-22T02:25:10;7.00;;;4.77;;
15673;SDS011;7937;48.090;16.212;2023-06-22T02:28:13;8.33;;;5.33;;
15673;SDS011;7937;48.090;16.212;2023-06-22T02:31:15;7.13;;;4.70;;
15673;SDS011;7937;48.090;16.212;2023-06-22T02:34:17;7.10;;;4.57;;
15673;SDS011;7937;48.090;16.212;2023-06-22T02:37:20;6.77;;;4.40;;
15673;SDS011;7937;48.090;16.212;2023-06-22T02:40:22;8.60;;;5.30;;
15673;SDS011;7937;48.090;16.212;2023-06-22T02:43:24;5.17;;;4.53;;
15673;SDS011;7937;48.090;16.212;2023-06-22T02:46:26;5.53;;;4.23;;
15673;SDS011;7937;48.090;16.212;2023-06-22T02:49:28;6.43;;;4.03;;
15673;SDS011;7937;48.090;16.212;2023-06-22T02:52:31;5.77;;;4.63;;
15673;SDS011;7937;48.090;16.212;2023-06-22T02:55:33;8.23;;;5.10;;
15673;SDS011;7937;48.090;16.212;2023-06-22T02:58:35;10.37;;;5.40;;
15673;SDS011;7937;48.090;16.212;2023-06-22T03:01:44;7.40;;;5.30;;
15673;SDS011;7937;48.090;16.212;2023-06-22T03:04:56;7.63;;;4.37;;
15673;SDS011;7937;48.090;16.212;2023-06-22T03:07:59;8.90;;;5.60;;
15673;SDS011;7937;48.090;16.212;2023-06-22T03:11:05;8.80;;;5.73;;
15673;SDS011;7937;48.090;16.212;2023-06-22T03:14:07;7.97;;;5.20;;
15673;SDS011;7937;48.090;16.212;2023-06-22T03:17:09;12.27;;;5.77;;
15673;SDS011;7937;48.090;16.212;2023-06-22T03:20:12;6.90;;;4.93;;
15673;SDS011;7937;48.090;16.212;2023-06-22T03:23:15;13.13;;;5.77;;
15673;SDS011;7937;48.090;16.212;2023-06-22T03:26:17;7.57;;;5.93;;
15673;SDS011;7937;48.090;16.212;2023-06-22T03:29:20;11.67;;;4.83;;
15673;SDS011;7937;48.090;16.212;2023-06-22T03:32:23;8.60;;;6.07;;
15673;SDS011;7937;48.090;16.212;2023-06-22T03:35:25;8.10;;;5.57;;
15673;SDS011;7937;48.090;16.212;2023-06-22T03:38:29;10.37;;;5.90;;
15673;SDS011;7937;48.090;16.212;2023-06-22T03:41:31;7.53;;;5.20;;
15673;SDS011;7937;48.090;16.212;2023-06-22T03:44:34;6.97;;;4.60;;
15673;SDS011;7937;48.090;16.212;2023-06-22T03:47:40;6.80;;;5.03;;
15673;SDS011;7937;48.090;16.212;2023-06-22T03:50:43;6.40;;;4.57;;
15673;SDS011;7937;48.090;16.212;2023-06-22T03:53:45;8.07;;;4.43;;
15673;SDS011;7937;48.090;16.212;2023-06-22T03:56:48;7.67;;;5.00;;
15673;SDS011;7937;48.090;16.212;2023-06-22T03:59:50;8.17;;;5.20;;
15673;SDS011;7937;48.090;16.212;2023-06-22T04:02:52;7.70;;;5.33;;
15673;SDS011;7937;48.090;16.212;2023-06-22T04:05:55;7.10;;;5.70;;
15673;SDS011;7937;48.090;16.212;2023-06-22T04:08:57;9.50;;;5.17;;
15673;SDS011;7937;48.090;16.212;2023-06-22T04:12:00;10.00;;;5.80;;
15673;SDS011;7937;48.090;16.212;2023-06-22T04:15:03;11.07;;;5.70;;
15673;SDS011;7937;48.090;16.212;2023-06-22T04:18:06;7.40;;;5.23;;
15673;SDS011;7937;48.090;16.212;2023-06-22T04:21:08;7.03;;;4.97;;
15673;SDS011;7937;48.090;16.212;2023-06-22T04:24:10;7.07;;;4.97;;
15673;SDS011;7937;48.090;16.212;2023-06-22T04:27:13;6.70;;;4.47;;
15673;SDS011;7937;48.090;16.212;2023-06-22T04:30:15;5.43;;;4.23;;
15673;SDS011;7937;48.090;16.212;2023-06-22T04:33:18;6.53;;;5.07;;
15673;SDS011;7937;48.090;16.212;2023-06-22T04:36:20;5.33;;;4.83;;
15673;SDS011;7937;48.090;16.212;2023-06-22T04:39:25;10.57;;;5.53;;
15673;SDS011;7937;48.090;16.212;2023-06-22T04:42:28;8.07;;;5.10;;
15673;SDS011;7937;48.090;16.212;2023-06-22T04:45:30;12.17;;;6.10;;
15673;SDS011;7937;48.090;16.212;2023-06-22T04:48:33;7.70;;;5.43;;
15673;SDS011;7937;48.090;16.212;2023-06-22T04:51:36;9.10;;;5.90;;
15673;SDS011;7937;48.090;16.212;2023-06-22T04:54:42;9.20;;;5.50;;
15673;SDS011;7937;48.090;16.212;2023-06-22T04:57:52;7.77;;;5.27;;
15673;SDS011;7937;48.090;16.212;2023-06-22T05:00:54;7.30;;;5.03;;
15673;SDS011;7937;48.090;16.212;2023-06-22T05:03:58;8.40;;;4.73;;
15673;SDS011;7937;48.090;16.212;2023-06-22T05:07:03;5.20;;;4.70;;
15673;SDS011;7937;48.090;16.212;2023-06-22T05:10:06;8.40;;;6.10;;
15673;SDS011;7937;48.090;16.212;2023-06-22T05:13:08;9.27;;;5.07;;
15673;SDS011;7937;48.090;16.212;2023-06-22T05:16:10;10.23;;;4.90;;
15673;SDS011;7937;48.090;16.212;2023-06-22T05:19:12;8.47;;;5.30;;
15673;SDS011;7937;48.090;16.212;2023-06-22T05:22:15;5.57;;;4.43;;
15673;SDS011;7937;48.090;16.212;2023-06-22T05:25:17;5.33;;;3.87;;
15673;SDS011;7937;48.090;16.212;2023-06-22T05:28:20;5.00;;;4.20;;
15673;SDS011;7937;48.090;16.212;2023-06-22T05:31:25;5.77;;;4.50;;
15673;SDS011;7937;48.090;16.212;2023-06-22T05:34:27;5.97;;;3.90;;
15673;SDS011;7937;48.090;16.212;2023-06-22T05:37:29;6.30;;;4.43;;
15673;SDS011;7937;48.090;16.212;2023-06-22T05:40:32;6.70;;;4.23;;
15673;SDS011;7937;48.090;16.212;2023-06-22T05:43:34;4.10;;;3.70;;
15673;SDS011;7937;48.090;16.212;2023-06-22T05:46:36;6.83;;;4.40;;
15673;SDS011;7937;48.090;16.212;2023-06-22T05:49:41;6.53;;;3.70;;
15673;SDS011;7937;48.090;16.212;2023-06-22T05:52:43;5.73;;;4.80;;
15673;SDS011;7937;48.090;16.212;2023-06-22T05:55:45;6.83;;;4.70;;
15673;SDS011;7937;48.090;16.212;2023-06-22T05:58:48;6.50;;;3.90;;
15673;SDS011;7937;48.090;16.212;2023-06-22T06:01:50;7.63;;;4.50;;
15673;SDS011;7937;48.090;16.212;2023-06-22T06:04:52;6.90;;;4.50;;
15673;SDS011;7937;48.090;16.212;2023-06-22T06:07:56;7.40;;;4.77;;
15673;SDS011;7937;48.090;16.212;2023-06-22T06:10:58;6.53;;;3.93;;
15673;SDS011;7937;48.090;16.212;2023-06-22T06:14:00;10.10;;;4.27;;
15673;SDS011;7937;48.090;16.212;2023-06-22T06:17:02;6.77;;;4.80;;
15673;SDS011;7937;48.090;16.212;2023-06-22T06:20:05;6.63;;;4.03;;
15673;SDS011;7937;48.090;16.212;2023-06-22T06:23:08;5.33;;;4.30;;
15673;SDS011;7937;48.090;16.212;2023-06-22T06:26:10;9.60;;;5.50;;
15673;SDS011;7937;48.090;16.212;2023-06-22T06:29:13;6.73;;;4.47;;
15673;SDS011;7937;48.090;16.212;2023-06-22T06:32:18;8.03;;;4.90;;
15673;SDS011;7937;48.090;16.212;2023-06-22T06:35:20;8.07;;;4.70;;
15673;SDS011;7937;48.090;16.212;2023-06-22T06:38:23;6.03;;;4.43;;
15673;SDS011;7937;48.090;16.212;2023-06-22T06:41:25;8.43;;;4.67;;
15673;SDS011;7937;48.090;16.212;2023-06-22T06:44:27;8.53;;;5.33;;
15673;SDS011;7937;48.090;16.212;2023-06-22T06:47:29;8.00;;;4.90;;
15673;SDS011;7937;48.090;16.212;2023-06-22T06:50:31;9.70;;;4.23;;
15673;SDS011;7937;48.090;16.212;2023-06-22T06:53:35;6.33;;;4.40;;
15673;SDS011;7937;48.090;16.212;2023-06-22T06:56:37;9.60;;;5.27;;
15673;SDS011;7937;48.090;16.212;2023-06-22T06:59:40;15.10;;;6.33;;
15673;SDS011;7937;48.090;16.212;2023-06-22T07:02:43;12.10;;;5.40;;
15673;SDS011;7937;48.090;16.212;2023-06-22T07:05:46;7.70;;;4.10;;
15673;SDS011;7937;48.090;16.212;2023-06-22T07:08:48;9.83;;;5.07;;
15673;SDS011;7937;48.090;16.212;2023-06-22T07:11:50;13.07;;;5.33;;
15673;SDS011;7937;48.090;16.212;2023-06-22T07:14:52;9.33;;;4.60;;
15673;SDS011;7937;48.090;16.212;2023-06-22T07:17:55;11.30;;;5.90;;
15673;SDS011;7937;48.090;16.212;2023-06-22T07:20:57;8.87;;;5.77;;
15673;SDS011;7937;48.090;16.212;2023-06-22T07:24:00;9.80;;;5.63;;
15673;SDS011;7937;48.090;16.212;2023-06-22T07:27:02;8.50;;;4.57;;
15673;SDS011;7937;48.090;16.212;2023-06-22T07:30:05;10.88;;;4.72;;
15673;SDS011;7937;48.090;16.212;2023-06-22T07:33:08;11.10;;;4.67;;
15673;SDS011;7937;48.090;16.212;2023-06-22T07:36:10;10.23;;;5.10;;
15673;SDS011;7937;48.090;16.212;2023-06-22T07:39:12;13.43;;;5.88;;
15673;SDS011;7937;48.090;16.212;2023-06-22T07:42:15;10.40;;;5.63;;
15673;SDS011;7937;48.090;16.212;2023-06-22T07:45:20;11.05;;;5.32;;
15673;SDS011;7937;48.090;16.212;2023-06-22T07:48:22;11.82;;;6.03;;
15673;SDS011;7937;48.090;16.212;2023-06-22T07:51:25;13.10;;;7.15;;
15673;SDS011;7937;48.090;16.212;2023-06-22T07:54:27;14.02;;;7.25;;
15673;SDS011;7937;48.090;16.212;2023-06-22T07:57:30;9.27;;;6.65;;
15673;SDS011;7937;48.090;16.212;2023-06-22T08:00:36;14.65;;;7.88;;
15673;SDS011;7937;48.090;16.212;2023-06-22T08:03:38;20.08;;;8.48;;
15673;SDS011;7937;48.090;16.212;2023-06-22T08:06:41;12.95;;;6.65;;
15673;SDS011;7937;48.090;16.212;2023-06-22T08:09:45;11.23;;;6.43;;
15673;SDS011;7937;48.090;16.212;2023-06-22T08:12:49;14.20;;;8.60;;
15673;SDS011;7937;48.090;16.212;2023-06-22T08:15:53;11.85;;;8.00;;
15673;SDS011;7937;48.090;16.212;2023-06-22T08:18:55;12.48;;;8.68;;
15673;SDS011;7937;48.090;16.212;2023-06-22T08:21:58;13.90;;;9.18;;
15673;SDS011;7937;48.090;16.212;2023-06-22T08:25:00;15.10;;;8.63;;
15673;SDS011;7937;48.090;16.212;2023-06-22T08:28:03;11.60;;;7.85;;
15673;SDS011;7937;48.090;16.212;2023-06-22T08:31:05;11.93;;;8.07;;
15673;SDS011;7937;48.090;16.212;2023-06-22T08:34:07;10.57;;;7.43;;
15673;SDS011;7937;48.090;16.212;2023-06-22T08:37:09;11.30;;;7.35;;
15673;SDS011;7937;48.090;16.212;2023-06-22T08:40:12;12.77;;;8.48;;
15673;SDS011;7937;48.090;16.212;2023-06-22T08:43:14;10.10;;;7.18;;
15673;SDS011;7937;48.090;16.212;2023-06-22T08:46:17;18.05;;;8.45;;
15673;SDS011;7937;48.090;16.212;2023-06-22T08:49:23;11.88;;;7.90;;
15673;SDS011;7937;48.090;16.212;2023-06-22T08:52:25;12.38;;;8.43;;
15673;SDS011;7937;48.090;16.212;2023-06-22T08:55:27;14.75;;;8.77;;
15673;SDS011;7937;48.090;16.212;2023-06-22T08:58:30;10.65;;;7.65;;
15673;SDS011;7937;48.090;16.212;2023-06-22T09:01:33;11.98;;;8.25;;
15673;SDS011;7937;48.090;16.212;2023-06-22T09:04:35;10.30;;;7.25;;
15673;SDS011;7937;48.090;16.212;2023-06-22T09:07:37;14.32;;;7.93;;
15673;SDS011;7937;48.090;16.212;2023-06-22T09:10:40;12.45;;;7.50;;
15673;SDS011;7937;48.090;16.212;2023-06-22T09:13:42;14.57;;;8.27;;
15673;SDS011;7937;48.090;16.212;2023-06-22T09:16:44;13.20;;;8.38;;
15673;SDS011;7937;48.090;16.212;2023-06-22T09:19:46;13.77;;;7.43;;
15673;SDS011;7937;48.090;16.212;2023-06-22T09:22:49;12.48;;;7.00;;
15673;SDS011;7937;48.090;16.212;2023-06-22T09:25:51;11.90;;;6.63;;
15673;SDS011;7937;48.090;16.212;2023-06-22T09:28:53;10.50;;;6.38;;
15673;SDS011;7937;48.090;16.212;2023-06-22T09:31:55;14.55;;;6.75;;
15673;SDS011;7937;48.090;16.212;2023-06-22T09:34:58;9.27;;;6.15;;
15673;SDS011;7937;48.090;16.212;2023-06-22T09:38:00;10.13;;;6.38;;
15673;SDS011;7937;48.090;16.212;2023-06-22T09:41:02;9.55;;;6.72;;
15673;SDS011;7937;48.090;16.212;2023-06-22T09:44:04;9.10;;;6.93;;
15673;SDS011;7937;48.090;16.212;2023-06-22T09:47:07;13.25;;;5.90;;
15673;SDS011;7937;48.090;16.212;2023-06-22T09:50:09;11.70;;;5.72;;
15673;SDS011;7937;48.090;16.212;2023-06-22T09:53:11;6.55;;;5.38;;
15673;SDS011;7937;48.090;16.212;2023-06-22T09:56:13;8.40;;;5.82;;
15673;SDS011;7937;48.090;16.212;2023-06-22T09:59:16;12.35;;;5.82;;
15673;SDS011;7937;48.090;16.212;2023-06-22T10:02:19;8.18;;;5.35;;
15673;SDS011;7937;48.090;16.212;2023-06-22T10:05:22;11.00;;;5.57;;
15673;SDS011;7937;48.090;16.212;2023-06-22T10:08:24;6.10;;;5.38;;
15673;SDS011;7937;48.090;16.212;2023-06-22T10:11:27;9.48;;;5.80;;
15673;SDS011;7937;48.090;16.212;2023-06-22T10:14:31;11.43;;;5.70;;
15673;SDS011;7937;48.090;16.212;2023-06-22T10:17:34;9.38;;;6.25;;
15673;SDS011;7937;48.090;16.212;2023-06-22T10:20:36;9.38;;;5.85;;
15673;SDS011;7937;48.090;16.212;2023-06-22T10:23:38;7.53;;;5.55;;
15673;SDS011;7937;48.090;16.212;2023-06-22T10:26:40;9.65;;;4.88;;
15673;SDS011;7937;48.090;16.212;2023-06-22T10:29:42;7.47;;;4.20;;
15673;SDS011;7937;48.090;16.212;2023-06-22T10:32:46;8.40;;;4.45;;
15673;SDS011;7937;48.090;16.212;2023-06-22T10:35:48;6.75;;;4.05;;
15673;SDS011;7937;48.090;16.212;2023-06-22T10:38:50;7.03;;;3.67;;
15673;SDS011;7937;48.090;16.212;2023-06-22T10:41:54;5.78;;;3.67;;
15673;SDS011;7937;48.090;16.212;2023-06-22T10:44:57;9.02;;;4.32;;
15673;SDS011;7937;48.090;16.212;2023-06-22T10:47:59;8.65;;;4.30;;
15673;SDS011;7937;48.090;16.212;2023-06-22T10:51:02;7.13;;;4.32;;
15673;SDS011;7937;48.090;16.212;2023-06-22T10:54:04;5.63;;;4.10;;
15673;SDS011;7937;48.090;16.212;2023-06-22T10:57:06;6.47;;;4.45;;
15673;SDS011;7937;48.090;16.212;2023-06-22T11:00:08;6.97;;;3.78;;
15673;SDS011;7937;48.090;16.212;2023-06-22T11:03:12;8.43;;;3.70;;
15673;SDS011;7937;48.090;16.212;2023-06-22T11:06:16;11.13;;;4.40;;
15673;SDS011;7937;48.090;16.212;2023-06-22T11:09:18;7.15;;;3.97;;
15673;SDS011;7937;48.090;16.212;2023-06-22T11:12:29;7.72;;;4.07;;
15673;SDS011;7937;48.090;16.212;2023-06-22T11:15:31;10.27;;;3.80;;
15673;SDS011;7937;48.090;16.212;2023-06-22T11:18:33;9.38;;;4.03;;
15673;SDS011;7937;48.090;16.212;2023-06-22T11:21:35;5.50;;;3.83;;
15673;SDS011;7937;48.090;16.212;2023-06-22T11:24:37;8.38;;;4.00;;
15673;SDS011;7937;48.090;16.212;2023-06-22T11:27:39;8.48;;;4.13;;
15673;SDS011;7937;48.090;16.212;2023-06-22T11:30:42;10.15;;;4.30;;
15673;SDS011;7937;48.090;16.212;2023-06-22T11:33:44;6.57;;;3.95;;
15673;SDS011;7937;48.090;16.212;2023-06-22T11:36:49;6.65;;;4.28;;
15673;SDS011;7937;48.090;16.212;2023-06-22T11:39:51;8.10;;;4.50;;
15673;SDS011;7937;48.090;16.212;2023-06-22T11:43:07;7.82;;;4.68;;
15673;SDS011;7937;48.090;16.212;2023-06-22T11:46:09;6.55;;;4.50;;
15673;SDS011;7937;48.090;16.212;2023-06-22T11:49:12;7.07;;;4.70;;
15673;SDS011;7937;48.090;16.212;2023-06-22T11:52:14;8.27;;;4.35;;
15673;SDS011;7937;48.090;16.212;2023-06-22T11:55:16;8.57;;;4.28;;
15673;SDS011;7937;48.090;16.212;2023-06-22T11:58:18;9.43;;;4.35;;
15673;SDS011;7937;48.090;16.212;2023-06-22T12:01:21;8.32;;;4.32;;
15673;SDS011;7937;48.090;16.212;2023-06-22T12:04:23;8.07;;;4.75;;
15673;SDS011;7937;48.090;16.212;2023-06-22T12:07:26;9.73;;;4.75;;
15673;SDS011;7937;48.090;16.212;2023-06-22T12:10:28;10.93;;;4.60;;
15673;SDS011;7937;48.090;16.212;2023-06-22T12:13:31;9.63;;;4.80;;
15673;SDS011;7937;48.090;16.212;2023-06-22T12:16:33;11.20;;;5.30;;
15673;SDS011;7937;48.090;16.212;2023-06-22T12:19:35;7.43;;;4.45;;
15673;SDS011;7937;48.090;16.212;2023-06-22T12:22:37;12.20;;;5.10;;
15673;SDS011;7937;48.090;16.212;2023-06-22T12:25:39;11.85;;;4.95;;
15673;SDS011;7937;48.090;16.212;2023-06-22T12:28:41;13.50;;;5.30;;
15673;SDS011;7937;48.090;16.212;2023-06-22T12:31:44;8.18;;;4.53;;
15673;SDS011;7937;48.090;16.212;2023-06-22T12:34:46;6.13;;;4.63;;
15673;SDS011;7937;48.090;16.212;2023-06-22T12:37:48;7.72;;;4.43;;
15673;SDS011;7937;48.090;16.212;2023-06-22T12:40:50;7.63;;;4.68;;
15673;SDS011;7937;48.090;16.212;2023-06-22T12:43:53;8.65;;;5.50;;
15673;SDS011;7937;48.090;16.212;2023-06-22T12:46:55;7.05;;;5.50;;
15673;SDS011;7937;48.090;16.212;2023-06-22T12:49:57;9.07;;;4.70;;
15673;SDS011;7937;48.090;16.212;2023-06-22T12:52:59;11.27;;;5.22;;
15673;SDS011;7937;48.090;16.212;2023-06-22T12:56:03;10.80;;;4.88;;
15673;SDS011;7937;48.090;16.212;2023-06-22T12:59:05;12.82;;;5.30;;
15673;SDS011;7937;48.090;16.212;2023-06-22T13:02:08;9.38;;;5.38;;
15673;SDS011;7937;48.090;16.212;2023-06-22T13:05:10;7.20;;;5.03;;
15673;SDS011;7937;48.090;16.212;2023-06-22T13:08:12;9.35;;;5.70;;
15673;SDS011;7937;48.090;16.212;2023-06-22T13:11:15;9.75;;;5.05;;
15673;SDS011;7937;48.090;16.212;2023-06-22T13:14:17;8.38;;;4.93;;
15673;SDS011;7937;48.090;16.212;2023-06-22T13:17:20;10.48;;;5.75;;
15673;SDS011;7937;48.090;16.212;2023-06-22T13:20:22;10.30;;;5.22;;
15673;SDS011;7937;48.090;16.212;2023-06-22T13:23:24;12.50;;;5.47;;
15673;SDS011;7937;48.090;16.212;2023-06-22T13:26:26;9.55;;;5.35;;
15673;SDS011;7937;48.090;16.212;2023-06-22T13:29:30;9.93;;;5.03;;
15673;SDS011;7937;48.090;16.212;2023-06-22T13:32:32;11.05;;;5.47;;
15673;SDS011;7937;48.090;16.212;2023-06-22T13:35:35;10.32;;;5.35;;
15673;SDS011;7937;48.090;16.212;2023-06-22T13:38:37;9.55;;;5.55;;
15673;SDS011;7937;48.090;16.212;2023-06-22T13:41:42;13.32;;;5.78;;
15673;SDS011;7937;48.090;16.212;2023-06-22T13:44:45;9.63;;;5.50;;
15673;SDS011;7937;48.090;16.212;2023-06-22T13:47:48;8.13;;;5.55;;
15673;SDS011;7937;48.090;16.212;2023-06-22T13:50:50;8.70;;;5.45;;
15673;SDS011;7937;48.090;16.212;2023-06-22T13:53:52;8.63;;;6.10;;
15673;SDS011;7937;48.090;16.212;2023-06-22T13:56:54;11.82;;;5.57;;
15673;SDS011;7937;48.090;16.212;2023-06-22T13:59:57;8.75;;;5.57;;
15673;SDS011;7937;48.090;16.212;2023-06-22T14:02:59;10.63;;;5.75;;
15673;SDS011;7937;48.090;16.212;2023-06-22T14:06:01;9.13;;;6.35;;
15673;SDS011;7937;48.090;16.212;2023-06-22T14:09:03;7.78;;;6.13;;
15673;SDS011;7937;48.090;16.212;2023-06-22T14:12:05;11.48;;;5.70;;
15673;SDS011;7937;48.090;16.212;2023-06-22T14:15:08;11.82;;;5.72;;
15673;SDS011;7937;48.090;16.212;2023-06-22T14:18:11;11.00;;;6.82;;
15673;SDS011;7937;48.090;16.212;2023-06-22T14:21:13;11.52;;;6.07;;
15673;SDS011;7937;48.090;16.212;2023-06-22T14:24:15;7.28;;;6.57;;
15673;SDS011;7937;48.090;16.212;2023-06-22T14:27:17;8.82;;;6.25;;
15673;SDS011;7937;48.090;16.212;2023-06-22T14:30:19;9.70;;;6.22;;
15673;SDS011;7937;48.090;16.212;2023-06-22T14:33:22;11.07;;;6.10;;
15673;SDS011;7937;48.090;16.212;2023-06-22T14:36:24;8.98;;;6.38;;
15673;SDS011;7937;48.090;16.212;2023-06-22T14:39:26;9.50;;;6.28;;
15673;SDS011;7937;48.090;16.212;2023-06-22T14:42:28;8.73;;;5.97;;
15673;SDS011;7937;48.090;16.212;2023-06-22T14:45:31;10.70;;;6.95;;
15673;SDS011;7937;48.090;16.212;2023-06-22T14:48:33;8.93;;;6.47;;
15673;SDS011;7937;48.090;16.212;2023-06-22T14:51:35;13.80;;;7.05;;
15673;SDS011;7937;48.090;16.212;2023-06-22T14:54:37;8.23;;;6.95;;
15673;SDS011;7937;48.090;16.212;2023-06-22T14:57:40;7.78;;;6.97;;
15673;SDS011;7937;48.090;16.212;2023-06-22T15:00:42;11.45;;;6.65;;
15673;SDS011;7937;48.090;16.212;2023-06-22T15:03:44;8.48;;;6.65;;
15673;SDS011;7937;48.090;16.212;2023-06-22T15:06:46;8.50;;;6.40;;
15673;SDS011;7937;48.090;16.212;2023-06-22T15:09:48;8.65;;;6.50;;
15673;SDS011;7937;48.090;16.212;2023-06-22T15:12:51;8.57;;;6.35;;
15673;SDS011;7937;48.090;16.212;2023-06-22T15:15:53;13.35;;;6.97;;
15673;SDS011;7937;48.090;16.212;2023-06-22T15:18:55;10.75;;;6.30;;
15673;SDS011;7937;48.090;16.212;2023-06-22T15:21:57;7.35;;;6.05;;
15673;SDS011;7937;48.090;16.212;2023-06-22T15:24:59;10.32;;;7.10;;
15673;SDS011;7937;48.090;16.212;2023-06-22T15:28:01;12.40;;;6.80;;
15673;SDS011;7937;48.090;16.212;2023-06-22T15:31:05;12.50;;;7.45;;
15673;SDS011;7937;48.090;16.212;2023-06-22T15:34:08;12.25;;;6.88;;
15673;SDS011;7937;48.090;16.212;2023-06-22T15:37:10;9.77;;;6.68;;
15673;SDS011;7937;48.090;16.212;2023-06-22T15:40:12;10.35;;;6.97;;
15673;SDS011;7937;48.090;16.212;2023-06-22T15:43:15;9.38;;;6.72;;
15673;SDS011;7937;48.090;16.212;2023-06-22T15:46:17;8.20;;;7.35;;
15673;SDS011;7937;48.090;16.212;2023-06-22T15:49:19;11.35;;;6.97;;
15673;SDS011;7937;48.090;16.212;2023-06-22T15:52:21;8.48;;;6.20;;
15673;SDS011;7937;48.090;16.212;2023-06-22T15:55:24;8.13;;;6.20;;
15673;SDS011;7937;48.090;16.212;2023-06-22T15:58:26;10.23;;;7.15;;
15673;SDS011;7937;48.090;16.212;2023-06-22T16:01:28;7.38;;;6.50;;
15673;SDS011;7937;48.090;16.212;2023-06-22T16:04:30;9.15;;;6.80;;
15673;SDS011;7937;48.090;16.212;2023-06-22T16:07:32;12.48;;;8.05;;
15673;SDS011;7937;48.090;16.212;2023-06-22T16:10:35;9.93;;;6.97;;
15673;SDS011;7937;48.090;16.212;2023-06-22T16:13:37;11.63;;;7.60;;
15673;SDS011;7937;48.090;16.212;2023-06-22T16:16:40;9.35;;;7.35;;
15673;SDS011;7937;48.090;16.212;2023-06-22T16:19:42;9.90;;;7.30;;
15673;SDS011;7937;48.090;16.212;2023-06-22T16:22:44;9.73;;;7.53;;
15673;SDS011;7937;48.090;16.212;2023-06-22T16:25:47;11.27;;;8.05;;
15673;SDS011;7937;48.090;16.212;2023-06-22T16:28:50;11.82;;;7.40;;
15673;SDS011;7937;48.090;16.212;2023-06-22T16:31:52;13.10;;;7.75;;
15673;SDS011;7937;48.090;16.212;2023-06-22T16:34:54;15.25;;;7.68;;
15673;SDS011;7937;48.090;16.212;2023-06-22T16:37:56;13.57;;;8.23;;
15673;SDS011;7937;48.090;16.212;2023-06-22T16:40:59;11.52;;;7.97;;
15673;SDS011;7937;48.090;16.212;2023-06-22T16:44:01;12.55;;;7.78;;
15673;SDS011;7937;48.090;16.212;2023-06-22T16:47:06;11.00;;;7.78;;
15673;SDS011;7937;48.090;16.212;2023-06-22T16:50:09;8.40;;;7.25;;
15673;SDS011;7937;48.090;16.212;2023-06-22T16:53:12;11.60;;;7.45;;
15673;SDS011;7937;48.090;16.212;2023-06-22T16:56:14;10.75;;;7.50;;
15673;SDS011;7937;48.090;16.212;2023-06-22T16:59:16;9.00;;;8.10;;
15673;SDS011;7937;48.090;16.212;2023-06-22T17:02:19;12.35;;;8.10;;
15673;SDS011;7937;48.090;16.212;2023-06-22T17:05:21;11.23;;;7.50;;
15673;SDS011;7937;48.090;16.212;2023-06-22T17:08:30;9.70;;;8.30;;
15673;SDS011;7937;48.090;16.212;2023-06-22T17:11:36;10.38;;;8.07;;
15673;SDS011;7937;48.090;16.212;2023-06-22T17:14:39;10.50;;;8.23;;
15673;SDS011;7937;48.090;16.212;2023-06-22T17:17:41;11.82;;;8.50;;
15673;SDS011;7937;48.090;16.212;2023-06-22T17:20:45;11.85;;;8.52;;
15673;SDS011;7937;48.090;16.212;2023-06-22T17:23:47;10.65;;;7.82;;
15673;SDS011;7937;48.090;16.212;2023-06-22T17:26:52;11.48;;;8.00;;
15673;SDS011;7937;48.090;16.212;2023-06-22T17:30:02;9.85;;;8.13;;
15673;SDS011;7937;48.090;16.212;2023-06-22T17:33:19;10.68;;;8.55;;
15673;SDS011;7937;48.090;16.212;2023-06-22T17:36:22;11.45;;;8.30;;
15673;SDS011;7937;48.090;16.212;2023-06-22T17:39:25;12.38;;;7.97;;
15673;SDS011;7937;48.090;16.212;2023-06-22T17:42:30;12.13;;;8.50;;
15673;SDS011;7937;48.090;16.212;2023-06-22T17:45:39;10.57;;;8.82;;
15673;SDS011;7937;48.090;16.212;2023-06-22T17:48:44;12.60;;;8.95;;
15673;SDS011;7937;48.090;16.212;2023-06-22T17:51:50;11.20;;;9.02;;
15673;SDS011;7937;48.090;16.212;2023-06-22T17:54:53;9.45;;;8.55;;
15673;SDS011;7937;48.090;16.212;2023-06-22T17:58:04;10.60;;;8.52;;
15673;SDS011;7937;48.090;16.212;2023-06-22T18:01:06;10.20;;;7.85;;
15673;SDS011;7937;48.090;16.212;2023-06-22T18:04:09;10.45;;;8.60;;
15673;SDS011;7937;48.090;16.212;2023-06-22T18:07:15;12.10;;;8.35;;
15673;SDS011;7937;48.090;16.212;2023-06-22T18:10:18;11.40;;;8.93;;
15673;SDS011;7937;48.090;16.212;2023-06-22T18:13:20;12.13;;;8.65;;
15673;SDS011;7937;48.090;16.212;2023-06-22T18:16:22;10.50;;;8.70;;
15673;SDS011;7937;48.090;16.212;2023-06-22T18:19:29;10.20;;;8.73;;
15673;SDS011;7937;48.090;16.212;2023-06-22T18:22:33;15.23;;;9.57;;
15673;SDS011;7937;48.090;16.212;2023-06-22T18:25:35;11.13;;;8.80;;